Time;durP1;ratioP1;P1;durP2;ratioP2;P2;SDS_P1;SDS_P2;PMS_P1;PMS_P2;Temp;Humidity;BMP_temperature;BMP_pressure;BME280_temperature;BME280_humidity;BME280_pressure;Samples;Min_cycle;Max_cycle;Signal;HPM_P1;HPM_P2
2022/05/22 00:01:52;;;;;;;18.90;5.07;;;;;;;;;;4983125;28;20452;-69
2022/05/22 00:04:18;;;;;;;8.93;4.00;;;;;;;;;;4982858;28;20037;-68
2022/05/22 00:06:44;;;;;;;8.77;4.20;;;;;;;;;;4983189;28;20042;-69
2022/05/22 00:09:10;;;;;;;7.47;4.93;;;;;;;;;;4984606;28;20030;-67
2022/05/22 00:11:36;;;;;;;7.05;4.40;;;;;;;;;;4984259;28;20024;-68
2022/05/22 00:14:02;;;;;;;4.78;3.78;;;;;;;;;;4984315;28;20416;-68
2022/05/22 00:16:37;;;;;;;6.55;3.63;;;;;;;;;;4981996;28;20080;-68
2022/05/22 00:19:07;;;;;;;7.55;3.97;;;;;;;;;;4982047;28;20027;-68
2022/05/22 00:21:35;;;;;;;12.10;5.88;;;;;;;;;;4984000;28;20129;-68
2022/05/22 00:24:01;;;;;;;5.35;4.82;;;;;;;;;;4985285;28;20022;-69
2022/05/22 00:26:27;;;;;;;3.70;3.28;;;21.00;99.90;;;;;;4985881;28;20077;-68
2022/05/22 00:28:52;;;;;;;5.32;4.18;;;21.10;99.90;;;;;;4983121;28;20057;-68
2022/05/22 00:31:18;;;;;;;4.25;3.85;;;;;;;;;;4981265;28;20031;-68
2022/05/22 00:33:44;;;;;;;3.95;3.53;;;;;;;;;;4987216;28;20138;-68
2022/05/22 00:36:10;;;;;;;7.22;4.07;;;21.30;91.30;;;;;;4987171;28;20030;-68
2022/05/22 00:38:37;;;;;;;6.65;3.38;;;;;;;;;;5002402;28;20027;-68
2022/05/22 00:41:03;;;;;;;4.30;3.45;;;21.20;99.20;;;;;;4986883;28;20496;-67
2022/05/22 00:43:45;;;;;;;6.15;4.28;;;21.10;91.40;;;;;;4985523;28;20058;-68
2022/05/22 00:46:12;;;;;;;5.68;3.92;;;;;;;;;;4984933;28;20042;-69
2022/05/22 00:48:39;;;;;;;5.47;4.68;;;;;;;;;;4987719;28;20046;-68
2022/05/22 00:51:11;;;;;;;17.85;5.55;;;;;;;;;;4987113;28;20029;-68
2022/05/22 00:53:39;;;;;;;5.32;4.03;;;;;;;;;;4987366;28;20031;-67
2022/05/22 00:56:07;;;;;;;10.50;4.05;;;21.00;91.40;;;;;;4986632;28;20077;-68
2022/05/22 00:58:34;;;;;;;5.65;4.57;;;;;;;;;;4985503;28;20030;-68
2022/05/22 01:01:02;;;;;;;4.15;3.63;;;21.00;91.10;;;;;;4983220;28;20035;-68
2022/05/22 01:03:28;;;;;;;4.82;3.70;;;21.00;91.20;;;;;;4986994;28;20073;-68
2022/05/22 01:06:02;;;;;;;6.00;4.15;;;;;;;;;;4987289;28;20026;-69
2022/05/22 01:08:29;;;;;;;22.95;4.70;;;;;;;;;;4988522;28;20031;-68
2022/05/22 01:10:57;;;;;;;5.07;3.97;;;;;;;;;;4986215;28;20027;-68
2022/05/22 01:13:26;;;;;;;5.40;4.05;;;;;;;;;;4985466;28;20058;-67
2022/05/22 01:15:52;;;;;;;5.38;4.05;;;;;;;;;;4983425;28;20538;-67
2022/05/22 01:18:18;;;;;;;4.90;3.78;;;;;;;;;;4986702;28;20030;-69
2022/05/22 01:20:49;;;;;;;4.55;4.07;;;21.10;90.60;;;;;;4987026;28;20484;-68
2022/05/22 01:23:16;;;;;;;7.53;3.47;;;21.00;90.60;;;;;;4987264;28;20622;-68
2022/05/22 01:25:42;;;;;;;7.25;3.88;;;;;;;;;;4984301;28;20026;-68
2022/05/22 01:28:13;;;;;;;6.78;4.60;;;;;;;;;;4984396;28;20423;-68
2022/05/22 01:30:39;;;;;;;4.93;4.25;;;;;;;;;;4985928;28;20045;-68
2022/05/22 01:33:05;;;;;;;5.78;3.50;;;;;;;;;;4986946;28;20027;-68
2022/05/22 01:35:32;;;;;;;6.03;3.75;;;;;;;;;;4987073;28;20037;-68
2022/05/22 01:37:58;;;;;;;4.85;3.83;;;;;;;;;;4985694;28;20034;-68
2022/05/22 01:40:24;;;;;;;9.13;3.78;;;;;;;;;;4984150;28;20034;-68
2022/05/22 01:42:50;;;;;;;4.28;3.80;;;;;;;;;;4984916;28;20038;-68
2022/05/22 01:45:20;;;;;;;5.90;3.33;;;;;;;;;;4986140;28;20057;-68
2022/05/22 01:47:46;;;;;;;6.57;3.50;;;;;;;;;;4987624;28;20109;-68
2022/05/22 01:50:13;;;;;;;8.60;3.83;;;20.40;91.30;;;;;;4987186;28;20110;-68
2022/05/22 01:52:40;;;;;;;5.10;3.35;;;;;;;;;;4984034;28;20034;-69
2022/05/22 01:55:07;;;;;;;9.48;4.28;;;20.30;91.20;;;;;;4985467;28;20046;-68
2022/05/22 01:57:33;;;;;;;4.15;3.75;;;;;;;;;;4986159;28;20028;-68
2022/05/22 02:00:00;;;;;;;4.97;4.53;;;;;;;;;;4986846;28;20061;-69
2022/05/22 02:02:26;;;;;;;7.38;5.63;;;;;;;;;;4987281;28;20029;-68
2022/05/22 02:04:52;;;;;;;6.03;4.20;;;;;;;;;;4984178;28;20126;-68
2022/05/22 02:10:04;;;;;;;4.35;3.63;;;;;;;;;;4984237;28;20523;-68
2022/05/22 02:12:30;;;;;;;10.95;4.28;;;;;;;;;;4986167;28;20547;-68
2022/05/22 02:14:56;;;;;;;10.50;4.13;;;;;;;;;;4985583;28;20764;-68
2022/05/22 02:17:22;;;;;;;7.65;3.92;;;;;;;;;;4987019;28;20514;-68
2022/05/22 02:19:48;;;;;;;4.13;3.55;;;;;;;;;;4982626;28;20027;-66
2022/05/22 02:22:14;;;;;;;5.32;4.57;;;;;;;;;;4983907;28;20041;-68
2022/05/22 02:24:40;;;;;;;7.57;4.43;;;;;;;;;;4984881;28;20041;-68
2022/05/22 02:27:06;;;;;;;5.05;3.92;;;20.20;90.90;;;;;;4985034;28;20045;-69
2022/05/22 02:29:33;;;;;;;5.70;3.75;;;;;;;;;;4984740;28;20140;-68
2022/05/22 02:31:59;;;;;;;4.95;3.88;;;;;;;;;;4985165;28;20039;-67
2022/05/22 02:34:25;;;;;;;4.28;3.30;;;;;;;;;;4984077;28;20037;-68
2022/05/22 02:36:51;;;;;;;7.55;5.18;;;;;;;;;;4985583;28;20041;-68
2022/05/22 02:39:20;;;;;;;5.13;3.90;;;;;;;;;;4985556;28;20046;-69
2022/05/22 02:41:46;;;;;;;4.15;3.78;;;20.30;99.90;;;;;;4985392;28;20054;-68
2022/05/22 02:44:12;;;;;;;6.65;4.05;;;;;;;;;;4984835;28;20527;-68
2022/05/22 02:46:41;;;;;;;5.30;3.88;;;;;;;;;;4983247;28;20072;-68
2022/05/22 02:49:07;;;;;;;3.78;3.47;;;;;;;;;;4981725;28;20547;-68
2022/05/22 02:51:34;;;;;;;3.72;3.38;;;;;;;;;;4984590;28;20022;-67
2022/05/22 02:54:00;;;;;;;4.10;3.17;;;;;;;;;;4986130;28;20109;-68
2022/05/22 02:56:27;;;;;;;6.97;3.78;;;20.20;90.30;;;;;;4985176;28;20030;-68
2022/05/22 02:58:53;;;;;;;6.28;3.35;;;20.20;92.90;;;;;;4983391;28;20026;-68
2022/05/22 03:01:19;;;;;;;9.02;4.15;;;20.20;95.00;;;;;;4983096;28;20050;-67
2022/05/22 03:03:45;;;;;;;5.95;4.30;;;;;;;;;;4983792;28;20027;-68
2022/05/22 03:08:56;;;;;;;4.95;3.97;;;;;;;;;;4985277;28;20053;-68
2022/05/22 03:11:22;;;;;;;4.25;3.85;;;;;;;;;;4985958;28;20025;-68
2022/05/22 03:13:48;;;;;;;5.45;3.50;;;;;;;;;;4983382;28;20113;-68
2022/05/22 03:16:15;;;;;;;6.90;3.95;;;;;;;;;;4983834;28;20106;-68
2022/05/22 03:18:41;;;;;;;5.43;3.90;;;;;;;;;;4983747;28;20034;-67
2022/05/22 03:21:07;;;;;;;5.43;4.57;;;;;;;;;;4984444;28;20065;-69
2022/05/22 03:23:33;;;;;;;9.15;4.53;;;;;;;;;;4984466;28;20026;-67
2022/05/22 03:25:59;;;;;;;5.00;4.35;;;;;;;;;;4983825;28;20026;-68
2022/05/22 03:28:25;;;;;;;4.90;3.88;;;;;;;;;;4982889;28;20092;-68
2022/05/22 03:30:51;;;;;;;5.97;3.20;;;;;;;;;;4983727;28;20030;-68
2022/05/22 03:33:17;;;;;;;6.57;4.43;;;19.90;99.90;;;;;;4984560;28;20507;-68
2022/05/22 03:35:43;;;;;;;3.85;3.28;;;;;;;;;;4984669;28;20117;-67
2022/05/22 03:38:09;;;;;;;4.47;3.97;;;;;;;;;;4983703;28;20026;-67
2022/05/22 03:40:45;;;;;;;6.57;3.40;;;;;;;;;;4982687;28;20044;-67
2022/05/22 03:43:12;;;;;;;4.82;3.53;;;;;;;;;;4983430;28;20110;-68
2022/05/22 03:45:38;;;;;;;4.60;3.45;;;;;;;;;;4984203;28;20041;-68
2022/05/22 03:48:04;;;;;;;9.55;3.42;;;;;;;;;;4984095;28;20712;-69
2022/05/22 03:50:30;;;;;;;7.63;3.95;;;;;;;;;;4985173;28;20027;-68
2022/05/22 03:52:56;;;;;;;5.28;4.30;;;;;;;;;;4982921;28;20036;-68
2022/05/22 03:55:22;;;;;;;5.40;3.60;;;;;;;;;;4982878;28;20019;-68
2022/05/22 03:57:49;;;;;;;10.25;3.78;;;;;;;;;;4983014;28;20089;-67
2022/05/22 04:00:16;;;;;;;12.23;4.43;;;;;;;;;;4984909;28;20026;-68
2022/05/22 04:02:43;;;;;;;5.82;4.45;;;;;;;;;;4984316;28;20527;-68
2022/05/22 04:05:09;;;;;;;9.63;3.80;;;;;;;;;;4984511;28;20022;-68
2022/05/22 04:07:43;;;;;;;9.15;4.18;;;19.70;91.10;;;;;;4982807;28;20034;-68
2022/05/22 04:10:10;;;;;;;5.30;3.35;;;;;;;;;;4985710;28;20254;-68
2022/05/22 04:12:37;;;;;;;5.75;3.25;;;19.60;91.30;;;;;;4987653;28;20041;-68
2022/05/22 04:15:04;;;;;;;6.68;3.47;;;;;;;;;;4987933;28;20030;-68
2022/05/22 04:17:30;;;;;;;7.10;3.25;;;;;;;;;;4989003;28;20130;-68
2022/05/22 04:19:56;;;;;;;5.38;3.92;;;;;;;;;;4986270;28;20098;-68
2022/05/22 04:22:22;;;;;;;11.18;3.53;;;;;;;;;;4986372;28;20056;-68
2022/05/22 04:27:40;;;;;;;3.60;2.92;;;19.80;91.20;;;;;;4986843;28;20053;-68
2022/05/22 04:30:07;;;;;;;5.03;3.15;;;19.80;93.10;;;;;;4987514;28;20031;-67
2022/05/22 04:32:33;;;;;;;8.30;3.00;;;19.60;93.10;;;;;;4988713;28;20045;-68
2022/05/22 04:34:59;;;;;;;4.25;3.63;;;;;;;;;;4986448;28;20030;-68
2022/05/22 04:37:24;;;;;;;3.40;3.10;;;19.30;93.90;;;;;;4986506;28;20034;-68
2022/05/22 04:39:50;;;;;;;6.95;3.60;;;;;;;;;;4986368;28;20088;-68
2022/05/22 04:42:16;;;;;;;4.85;2.95;;;;;;;;;;4987765;28;20042;-68
2022/05/22 04:44:42;;;;;;;6.03;3.47;;;19.60;99.90;;;;;;4986257;28;20065;-67
2022/05/22 04:47:08;;;;;;;6.45;3.63;;;19.80;99.90;;;;;;4988435;28;20038;-68
2022/05/22 04:49:34;;;;;;;7.05;3.05;;;;;;;;;;4985378;28;20048;-68
2022/05/22 04:52:00;;;;;;;4.03;3.38;;;;;;;;;;4984795;28;20076;-68
2022/05/22 04:54:26;;;;;;;7.63;3.38;;;19.80;95.40;;;;;;4987142;28;20033;-68
2022/05/22 04:56:53;;;;;;;7.15;3.58;;;19.90;90.90;;;;;;4987113;28;20447;-68
2022/05/22 04:59:19;;;;;;;;;;;;;;;;;;4987899;28;20027;-69
2022/05/22 05:01:45;;;;;;;4.03;2.72;;;;;;;;;;4986863;28;19971;-68
2022/05/22 05:04:14;;;;;;;6.72;3.30;;;;;;;;;;4985652;28;20575;-69
2022/05/22 05:06:40;;;;;;;3.88;2.88;;;;;;;;;;4985725;28;20022;-68
2022/05/22 05:09:06;;;;;;;4.03;3.05;;;20.00;96.00;;;;;;4986918;28;20038;-68
2022/05/22 05:11:32;;;;;;;4.15;3.25;;;20.00;91.00;;;;;;4987783;28;20483;-68
2022/05/22 05:13:58;;;;;;;5.00;3.72;;;;;;;;;;4986266;28;20399;-69
2022/05/22 05:16:24;;;;;;;5.55;3.00;;;;;;;;;;4984681;28;20030;-68
2022/05/22 05:18:50;;;;;;;4.70;3.42;;;;;;;;;;4985873;28;20057;-68
2022/05/22 05:21:18;;;;;;;3.88;3.10;;;;;;;;;;4986669;28;20057;-68
2022/05/22 05:23:44;;;;;;;4.88;2.88;;;;;;;;;;4986443;28;20042;-68
2022/05/22 05:26:10;;;;;;;10.13;3.78;;;;;;;;;;4986431;28;20789;-68
2022/05/22 05:28:36;;;;;;;6.72;4.13;;;20.90;96.60;;;;;;4984839;28;20045;-68
2022/05/22 05:31:03;;;;;;;3.85;3.28;;;;;;;;;;4985398;28;20034;-67
2022/05/22 05:33:32;;;;;;;11.05;4.10;;;;;;;;;;4987075;28;20042;-68
2022/05/22 05:35:58;;;;;;;4.50;2.97;;;;;;;;;;4986308;28;20072;-69
2022/05/22 05:38:24;;;;;;;4.88;3.78;;;;;;;;;;4987387;28;20810;-68
2022/05/22 05:40:50;;;;;;;4.32;3.58;;;;;;;;;;4985081;28;20034;-68
2022/05/22 05:43:16;;;;;;;5.70;4.07;;;24.00;90.10;;;;;;4985059;28;20051;-69
2022/05/22 05:45:43;;;;;;;3.33;2.92;;;21.20;90.10;;;;;;4986372;28;20026;-69
2022/05/22 05:48:09;;;;;;;10.00;3.77;;;;;;;;;;4987238;28;20038;-69
2022/05/22 05:50:35;;;;;;;4.53;4.13;;;;;;;;;;4986384;28;20030;-67
2022/05/22 05:53:01;;;;;;;6.53;5.05;;;;;;;;;;4985992;28;20057;-68
2022/05/22 05:55:28;;;;;;;6.97;4.73;;;;;;;;;;4985636;28;20026;-67
2022/05/22 05:57:54;;;;;;;6.00;5.07;;;;;;;;;;4984204;28;20077;-69
2022/05/22 06:00:23;;;;;;;7.03;4.68;;;22.00;86.20;;;;;;4986230;28;20329;-69
2022/05/22 06:02:49;;;;;;;5.03;3.92;;;;;;;;;;4986364;28;20080;-68
2022/05/22 06:05:16;;;;;;;7.07;4.05;;;;;;;;;;4986411;28;20125;-68
2022/05/22 06:07:42;;;;;;;8.38;3.08;;;;;;;;;;4984964;28;20064;-69
2022/05/22 06:10:09;;;;;;;4.43;3.10;;;;;;;;;;4984233;28;20412;-68
2022/05/22 06:12:35;;;;;;;6.85;3.10;;;;;;;;;;4986033;28;20030;-68
2022/05/22 06:15:02;;;;;;;4.13;2.65;;;;;;;;;;4985787;28;20030;-68
2022/05/22 06:17:37;;;;;;;5.95;2.78;;;;;;;;;;4987260;28;20035;-69
2022/05/22 06:20:06;;;;;;;6.72;3.50;;;;;;;;;;4985281;28;20578;-69
2022/05/22 06:22:34;;;;;;;5.68;3.40;;;23.10;80.90;;;;;;4982101;28;20042;-68
2022/05/22 06:25:00;;;;;;;;;;;;;;;;;;4986271;28;20038;-68
2022/05/22 06:27:25;;;;;;;6.57;2.47;;;;;;;;;;4986643;28;20284;-68
2022/05/22 06:29:52;;;;;;;3.78;2.55;;;;;;;;;;4985959;28;20034;-68
2022/05/22 06:32:19;;;;;;;4.22;3.22;;;;;;;;;;4986641;28;20022;-68
2022/05/22 06:34:47;;;;;;;6.32;3.30;;;;;;;;;;4983581;28;20034;-69
2022/05/22 06:37:15;;;;;;;7.60;2.97;;;;;;;;;;4985749;28;20031;-69
2022/05/22 06:39:53;;;;;;;4.00;2.67;;;23.70;93.20;;;;;;4984978;28;20667;-68
2022/05/22 06:42:28;;;;;;;4.25;3.10;;;;;;;;;;4986340;28;20069;-68
2022/05/22 06:45:00;;;;;;;4.50;2.80;;;23.60;79.60;;;;;;4986254;28;20042;-68
2022/05/22 06:47:27;;;;;;;7.45;2.92;;;;;;;;;;4987439;28;20057;-67
2022/05/22 06:49:53;;;;;;;;;;;;;;;;;;4984188;28;20399;-69
2022/05/22 06:52:19;;;;;;;6.63;2.97;;;;;;;;;;4984746;28;20006;-69
2022/05/22 06:54:46;;;;;;;9.80;3.67;;;;;;;;;;4984396;28;20076;-68
2022/05/22 06:57:14;;;;;;;7.80;2.67;;;;;;;;;;4984939;28;20084;-67
2022/05/22 06:59:40;;;;;;;4.90;2.60;;;;;;;;;;4984223;28;20034;-68
2022/05/22 07:02:06;;;;;;;4.50;3.05;;;25.20;88.20;;;;;;4984660;28;20049;-67
2022/05/22 07:04:32;;;;;;;5.13;3.08;;;;;;;;;;4983216;28;20069;-68
2022/05/22 07:06:58;;;;;;;5.38;3.13;;;25.50;83.10;;;;;;4983756;28;20097;-68
2022/05/22 07:09:24;;;;;;;4.22;2.85;;;;;;;;;;4985213;28;20038;-68
2022/05/22 07:11:53;;;;;;;4.68;2.65;;;;;;;;;;4985190;28;20521;-68
2022/05/22 07:14:20;;;;;;;2.92;1.88;;;;;;;;;;4986679;28;20169;-69
2022/05/22 07:16:46;;;;;;;4.33;2.57;;;26.00;80.10;;;;;;4983990;28;20026;-68
2022/05/22 07:19:12;;;;;;;5.78;3.30;;;;;;;;;;4983163;28;20282;-68
2022/05/22 07:21:38;;;;;;;3.45;1.98;;;26.70;90.00;;;;;;4984900;28;20474;-69
2022/05/22 07:24:04;;;;;;;3.90;2.35;;;;;;;;;;4985054;28;20058;-69
2022/05/22 07:26:31;;;;;;;5.87;2.40;;;;;;;;;;4984399;28;20045;-68
2022/05/22 07:28:58;;;;;;;2.38;1.65;;;27.60;87.90;;;;;;4985463;28;20332;-69
2022/05/22 07:31:26;;;;;;;5.38;2.00;;;;;;;;;;4983845;28;20022;-68
2022/05/22 07:33:52;;;;;;;5.07;1.73;;;;;;;;;;4985016;28;20037;-68
2022/05/22 07:36:18;;;;;;;2.30;1.60;;;;;;;;;;4985730;28;20022;-69
2022/05/22 07:38:45;;;;;;;3.90;1.67;;;;;;;;;;4986104;28;20595;-68
2022/05/22 07:41:12;;;;;;;2.83;1.30;;;;;;;;;;4984827;28;20042;-69
2022/05/22 07:43:38;;;;;;;2.95;2.08;;;;;;;;;;4985803;28;20042;-68
2022/05/22 07:46:04;;;;;;;1.65;1.42;;;;;;;;;;4987554;28;20059;-69
2022/05/22 07:48:30;;;;;;;2.38;1.17;;;;;;;;;;4988560;28;20053;-69
2022/05/22 07:50:58;;;;;;;6.53;1.63;;;30.80;71.10;;;;;;4988790;28;20084;-69
2022/05/22 07:53:24;;;;;;;5.65;1.30;;;;;;;;;;4989388;28;20030;-69
2022/05/22 07:55:50;;;;;;;;;;;;;;;;;;4987783;28;20042;-69
2022/05/22 07:58:16;;;;;;;;;;;;;;;;;;4987484;28;19933;-69
2022/05/22 08:00:42;;;;;;;2.17;0.95;;;;;;;;;;4987666;28;19914;-69
2022/05/22 08:03:12;;;;;;;5.20;1.45;;;;;;;;;;4987689;28;20373;-68
2022/05/22 08:05:38;;;;;;;3.67;1.45;;;;;;;;;;4988858;28;20057;-62
2022/05/22 08:08:05;;;;;;;3.08;1.70;;;;;;;;;;4989360;28;20042;-62
2022/05/22 08:10:30;;;;;;;;;;;30.90;51.70;;;;;;4987205;28;20061;-62
2022/05/22 08:12:56;;;;;;;4.68;1.15;;;;;;;;;;4986645;28;19964;-61
2022/05/22 08:15:24;;;;;;;7.25;1.50;;;31.50;62.70;;;;;;4988612;28;20384;-62
2022/05/22 08:17:50;;;;;;;5.63;1.20;;;;;;;;;;4988839;28;20044;-62
2022/05/22 08:20:20;;;;;;;2.95;1.10;;;32.00;50.70;;;;;;4988787;28;20097;-62
2022/05/22 08:22:47;;;;;;;4.40;1.27;;;31.70;49.50;;;;;;4987071;28;20061;-62
2022/05/22 08:25:16;;;;;;;3.90;2.33;;;32.00;50.20;;;;;;4987319;28;20045;-62
2022/05/22 08:27:41;;;;;;;3.47;1.40;;;31.70;51.70;;;;;;4988267;28;20022;-62
2022/05/22 08:30:10;;;;;;;2.60;1.40;;;31.70;67.50;;;;;;4988552;28;20403;-63
2022/05/22 08:32:37;;;;;;;2.00;1.50;;;31.70;51.20;;;;;;4987520;28;20444;-63
2022/05/22 08:35:04;;;;;;;4.15;1.73;;;;;;;;;;4987150;28;20034;-61
2022/05/22 08:37:29;;;;;;;;;;;;;;;;;;4987209;28;20038;-63
2022/05/22 08:39:55;;;;;;;15.15;2.00;;;;;;;;;;4987482;28;19918;-61
2022/05/22 08:42:32;;;;;;;3.97;1.52;;;32.90;48.30;;;;;;4988656;28;20058;-62
2022/05/22 08:44:58;;;;;;;2.63;1.63;;;32.80;67.10;;;;;;4988069;28;20550;-62
2022/05/22 08:47:32;;;;;;;3.35;1.58;;;;;;;;;;4988410;28;20061;-62
2022/05/22 08:50:04;;;;;;;3.42;2.47;;;32.60;49.60;;;;;;4987310;28;20515;-62
2022/05/22 08:52:39;;;;;;;2.47;1.75;;;32.50;49.80;;;;;;4985668;28;20022;-61
2022/05/22 08:55:09;;;;;;;2.85;1.90;;;32.70;49.50;;;;;;4986058;28;20039;-62
2022/05/22 09:00:51;;;;;;;2.45;1.50;;;32.90;67.20;;;;;;4987241;28;20041;-62
2022/05/22 09:03:29;;;;;;;4.05;1.42;;;32.70;49.80;;;;;;4987246;28;20034;-62
2022/05/22 09:05:59;;;;;;;2.40;1.38;;;32.70;49.30;;;;;;4988583;28;20034;-63
2022/05/22 09:08:49;;;;;;;3.55;1.75;;;32.30;49.50;;;;;;4987474;28;20169;-62
2022/05/22 09:11:38;;;;;;;4.47;2.13;;;32.50;55.80;;;;;;4987612;28;20061;-62
2022/05/22 09:14:05;;;;;;;5.82;1.58;;;;;;;;;;4989839;28;20511;-62
2022/05/22 09:16:33;;;;;;;3.95;1.40;;;;;;;;;;4985321;28;20092;-62
2022/05/22 09:19:25;;;;;;;5.30;1.90;;;32.40;50.00;;;;;;4985210;28;20746;-62
2022/05/22 09:22:17;;;;;;;6.88;1.15;;;32.40;49.60;;;;;;4986930;28;20081;-62
2022/05/22 09:24:45;;;;;;;2.22;1.20;;;32.40;49.80;;;;;;4987143;28;20555;-62
2022/05/22 09:27:34;;;;;;;3.38;1.73;;;32.30;49.20;;;;;;4988478;28;20023;-62
2022/05/22 09:30:00;;;;;;;8.13;2.45;;;;;;;;;;4987177;28;20042;-61
2022/05/22 09:32:41;;;;;;;6.53;2.95;;;;;;;;;;4988577;28;20092;-61
2022/05/22 09:35:16;;;;;;;7.28;1.92;;;32.80;47.80;;;;;;4987259;28;20490;-62
2022/05/22 09:38:15;;;;;;;11.70;2.42;;;33.50;47.10;;;;;;4986816;28;20034;-62
2022/05/22 09:40:58;;;;;;;5.15;2.25;;;34.00;46.40;;;;;;4985095;28;20034;-62
2022/05/22 09:43:26;;;;;;;6.20;1.25;;;34.20;44.80;;;;;;4985053;28;20053;-62
2022/05/22 09:46:31;;;;;;;2.25;1.70;;;33.40;45.20;;;;;;4985705;28;20547;-62
2022/05/22 09:49:30;;;;;;;1.75;1.13;;;32.80;47.20;;;;;;5002988;28;20041;-62
2022/05/22 09:52:18;;;;;;;2.13;1.30;;;32.80;48.30;;;;;;5002106;28;20034;-62
2022/05/22 09:55:08;;;;;;;4.35;1.98;;;32.80;47.50;;;;;;5002596;28;20038;-62
2022/05/22 09:57:37;;;;;;;2.13;1.15;;;;;;;;;;5002659;28;20034;-64
2022/05/22 10:00:09;;;;;;;3.67;1.10;;;32.30;48.30;;;;;;5001857;28;20041;-62
2022/05/22 10:02:43;;;;;;;3.75;1.48;;;32.20;48.70;;;;;;5003263;28;20049;-61
2022/05/22 10:05:24;;;;;;;3.45;2.05;;;31.60;49.30;;;;;;5001231;28;20071;-61
2022/05/22 10:07:52;;;;;;;2.47;1.35;;;31.50;50.30;;;;;;5002092;28;20099;-62
2022/05/22 10:10:24;;;;;;;7.55;1.52;;;31.70;63.10;;;;;;5000278;28;20033;-61
2022/05/22 10:13:25;;;;;;;2.42;0.90;;;31.90;49.60;;;;;;5002005;28;20049;-63
2022/05/22 10:15:51;;;;;;;3.58;1.05;;;;;;;;;;5002159;28;20027;-62
2022/05/22 10:18:49;;;;;;;6.65;2.97;;;32.70;49.20;;;;;;5001144;28;20079;-62
2022/05/22 10:21:17;;;;;;;3.55;0.85;;;33.10;64.50;;;;;;4986239;28;20080;-62
2022/05/22 10:24:14;;;;;;;4.47;1.90;;;33.30;47.60;;;;;;4986961;28;20026;-62
2022/05/22 10:26:49;;;;;;;2.55;0.90;;;;;;;;;;4985377;28;20111;-62
2022/05/22 10:29:40;;;;;;;1.92;0.70;;;33.70;46.60;;;;;;4987008;28;20129;-62
2022/05/22 10:32:12;;;;;;;2.13;1.38;;;34.60;63.80;;;;;;4986392;28;20061;-62
2022/05/22 10:34:47;;;;;;;2.55;1.02;;;34.30;45.80;;;;;;4984559;28;20101;-62
2022/05/22 10:37:25;;;;;;;5.03;1.97;;;;;;;;;;4985255;28;20500;-62
2022/05/22 10:39:51;;;;;;;3.25;2.03;;;34.20;62.40;;;;;;4985272;28;20377;-63
2022/05/22 10:42:45;;;;;;;2.20;0.97;;;;;;;;;;4985467;28;20041;-62
2022/05/22 10:45:21;;;;;;;2.88;1.77;;;34.40;61.50;;;;;;4985777;28;20122;-62
2022/05/22 10:47:47;;;;;;;2.60;1.17;;;34.50;62.40;;;;;;4985673;28;20117;-62
2022/05/22 10:50:24;;;;;;;;;;;33.90;46.50;;;;;;4985974;28;20035;-61
2022/05/22 10:52:50;;;;;;;3.35;1.77;;;;;;;;;;4983998;28;19918;-62
2022/05/22 10:55:18;;;;;;;;;;;33.00;47.50;;;;;;4983598;28;20081;-62
2022/05/22 10:57:54;;;;;;;1.50;1.15;;;32.80;47.90;;;;;;4985238;28;19920;-62
2022/05/22 11:00:21;;;;;;;3.38;0.77;;;32.60;54.60;;;;;;4984709;28;20096;-62
2022/05/22 11:02:46;;;;;;;1.85;1.20;;;32.00;67.00;;;;;;4985821;28;20057;-62
2022/05/22 11:05:26;;;;;;;2.40;1.30;;;32.30;50.30;;;;;;4998610;28;20066;-61
2022/05/22 11:07:53;;;;;;;4.60;2.88;;;;;;;;;;4984642;28;20403;-63
2022/05/22 11:10:22;;;;;;;4.05;1.20;;;;;;;;;;4983150;28;20076;-62
2022/05/22 11:13:03;;;;;;;2.78;0.90;;;;;;;;;;4984968;28;20562;-62
2022/05/22 11:15:29;;;;;;;1.92;1.25;;;;;;;;;;4984652;28;20054;-63
2022/05/22 11:18:06;;;;;;;2.10;1.60;;;;;;;;;;4985962;28;20145;-62
2022/05/22 11:20:32;;;;;;;5.95;1.92;;;;;;;;;;4986489;28;20101;-62
2022/05/22 11:23:01;;;;;;;4.47;1.10;;;;;;;;;;4982672;28;20031;-61
2022/05/22 11:25:35;;;;;;;4.20;1.55;;;32.10;50.90;;;;;;4982274;28;20455;-61
2022/05/22 11:28:27;;;;;;;4.63;2.00;;;31.70;69.40;;;;;;4982249;28;20076;-61
2022/05/22 11:31:04;;;;;;;3.33;1.48;;;31.50;69.30;;;;;;4984104;28;20114;-62
2022/05/22 11:33:35;;;;;;;2.55;2.00;;;;;;;;;;4984666;28;20053;-62
2022/05/22 11:36:40;;;;;;;3.22;1.98;;;;;;;;;;4985309;28;20477;-61
2022/05/22 11:39:22;;;;;;;2.40;1.58;;;;;;;;;;5005619;28;20037;-62
2022/05/22 11:41:50;;;;;;;3.45;1.73;;;;;;;;;;5005022;28;20026;-61
2022/05/22 11:44:28;;;;;;;3.08;2.15;;;;;;;;;;5005336;28;20061;-62
2022/05/22 11:46:59;;;;;;;3.45;1.77;;;31.30;52.00;;;;;;5004943;28;20030;-63
2022/05/22 11:49:39;;;;;;;4.55;1.63;;;31.20;51.40;;;;;;4988080;28;20799;-62
2022/05/22 11:52:07;;;;;;;6.43;2.22;;;31.10;63.60;;;;;;5005181;28;20076;-62
2022/05/22 11:54:51;;;;;;;3.05;2.50;;;31.00;52.30;;;;;;5005508;28;20034;-62
2022/05/22 11:57:29;;;;;;;2.72;1.42;;;31.20;53.50;;;;;;5005148;28;20038;-62
2022/05/22 12:00:26;;;;;;;5.20;1.73;;;31.20;52.70;;;;;;5004894;28;20048;-62
2022/05/22 12:03:10;;;;;;;2.85;2.00;;;30.90;53.10;;;;;;5005491;28;20036;-61
2022/05/22 12:05:44;;;;;;;3.58;2.15;;;;;;;;;;5004820;28;20037;-62
2022/05/22 12:08:11;;;;;;;6.03;1.40;;;;;;;;;;5004154;28;20484;-62
2022/05/22 12:10:41;;;;;;;7.88;1.65;;;;;;;;;;4986104;28;20065;-61
2022/05/22 12:13:14;;;;;;;3.95;1.67;;;;;;;;;;4982470;28;20035;-61
2022/05/22 12:15:46;;;;;;;7.22;1.40;;;;;;;;;;4983752;28;20030;-62
2022/05/22 12:18:30;;;;;;;5.35;1.90;;;;;;;;;;4984697;28;20046;-62
2022/05/22 12:21:14;;;;;;;5.03;1.92;;;;;;;;;;4986219;28;20030;-61
2022/05/22 12:23:47;;;;;;;4.32;1.23;;;;;;;;;;4984911;28;20026;-62
2022/05/22 12:26:14;;;;;;;3.30;1.95;;;;;;;;;;4985386;28;20041;-62
2022/05/22 12:28:54;;;;;;;1.92;1.38;;;30.30;53.90;;;;;;4984199;28;20542;-62
2022/05/22 12:31:26;;;;;;;5.18;2.08;;;;;;;;;;4985304;28;20153;-63
2022/05/22 12:33:52;;;;;;;2.28;1.70;;;;;;;;;;4987243;28;20041;-62
2022/05/22 12:36:23;;;;;;;4.35;1.98;;;;;;;;;;4987493;28;20027;-62
2022/05/22 12:38:51;;;;;;;3.55;1.98;;;;;;;;;;4987471;28;20038;-62
2022/05/22 12:41:35;;;;;;;4.45;2.17;;;30.10;54.50;;;;;;4988247;28;20026;-61
2022/05/22 12:44:04;;;;;;;4.25;1.70;;;30.00;55.50;;;;;;4987021;28;20057;-62
2022/05/22 12:46:31;;;;;;;2.67;1.75;;;29.90;55.20;;;;;;4985326;28;20046;-62
2022/05/22 12:49:19;;;;;;;4.18;1.92;;;29.90;57.10;;;;;;4986047;28;20411;-62
2022/05/22 12:51:56;;;;;;;8.13;2.88;;;;;;;;;;4986384;28;20061;-68
2022/05/22 12:54:24;;;;;;;4.72;1.95;;;;;;;;;;4987962;28;20026;-63
2022/05/22 12:56:50;;;;;;;7.70;1.98;;;30.10;56.60;;;;;;4988456;28;20030;-64
2022/05/22 12:59:23;;;;;;;4.40;1.98;;;;;;;;;;4987918;28;20023;-68
2022/05/22 13:01:52;;;;;;;4.30;1.65;;;30.30;56.60;;;;;;4984444;28;20037;-63
2022/05/22 13:04:26;;;;;;;4.50;1.85;;;;;;;;;;4986403;28;20081;-63
2022/05/22 13:07:07;;;;;;;3.10;2.13;;;30.30;56.40;;;;;;4986874;28;20117;-62
2022/05/22 13:09:33;;;;;;;2.47;1.98;;;;;;;;;;4987456;28;20121;-64
2022/05/22 13:11:59;;;;;;;5.65;1.83;;;;;;;;;;4987232;28;20035;-62
2022/05/22 13:14:30;;;;;;;4.37;2.73;;;;;;;;;;4987727;28;20030;-62
2022/05/22 13:16:56;;;;;;;2.97;1.77;;;;;;;;;;4986116;28;20024;-62
2022/05/22 13:19:22;;;;;;;9.27;2.00;;;29.90;56.50;;;;;;4985760;28;20423;-62
2022/05/22 13:21:49;;;;;;;12.50;3.03;;;;;;;;;;4986221;28;20403;-63
2022/05/22 13:24:15;;;;;;;5.45;2.70;;;;;;;;;;4987517;28;20034;-63
2022/05/22 13:26:42;;;;;;;7.40;3.83;;;;;;;;;;4987131;28;20042;-62
2022/05/22 13:29:15;;;;;;;6.07;1.73;;;30.10;55.90;;;;;;4987609;28;20113;-63
2022/05/22 13:31:52;;;;;;;2.78;1.77;;;;;;;;;;4984775;28;20105;-62
2022/05/22 13:34:25;;;;;;;5.35;2.53;;;;;;;;;;4985183;28;20030;-62
2022/05/22 13:36:56;;;;;;;2.38;1.65;;;30.40;55.80;;;;;;4986515;28;20027;-62
2022/05/22 13:39:30;;;;;;;8.63;2.03;;;;;;;;;;4987099;28;20053;-63
2022/05/22 13:41:56;;;;;;;4.97;2.10;;;;;;;;;;4987332;28;20068;-62
2022/05/22 13:44:38;;;;;;;5.40;1.90;;;;;;;;;;4986240;28;20045;-62
2022/05/22 13:47:07;;;;;;;5.00;1.70;;;;;;;;;;4985415;28;20604;-63
2022/05/22 13:49:44;;;;;;;3.97;2.08;;;;;;;;;;4984477;28;20052;-62
2022/05/22 13:52:39;;;;;;;2.63;1.85;;;30.20;55.50;;;;;;4984241;28;20579;-62
2022/05/22 13:55:10;;;;;;;5.35;2.25;;;;;;;;;;4984601;28;20032;-63
2022/05/22 13:57:38;;;;;;;2.95;2.20;;;;;;;;;;4986237;28;20026;-63
2022/05/22 14:00:20;;;;;;;3.20;1.50;;;30.20;55.70;;;;;;4986556;28;20037;-63
2022/05/22 14:03:03;;;;;;;3.40;1.98;;;;;;;;;;4986599;28;20022;-62
2022/05/22 14:05:36;;;;;;;2.40;1.85;;;;;;;;;;4985992;28;21056;-64
2022/05/22 14:08:11;;;;;;;6.65;2.28;;;30.10;57.50;;;;;;4984291;28;20045;-64
2022/05/22 14:10:39;;;;;;;7.50;2.20;;;30.30;57.90;;;;;;4986462;28;20526;-62
2022/05/22 14:13:20;;;;;;;5.50;2.30;;;30.20;57.00;;;;;;4986128;28;20038;-62
2022/05/22 14:16:05;;;;;;;2.88;1.67;;;;;;;;;;4986833;28;20034;-63
2022/05/22 14:18:32;;;;;;;11.90;2.13;;;;;;;;;;4985725;28;20038;-63
2022/05/22 14:21:04;;;;;;;;;;;30.20;57.60;;;;;;4985562;28;20113;-61
2022/05/22 14:23:30;;;;;;;2.53;1.48;;;;;;;;;;4987082;28;19909;-63
2022/05/22 14:26:00;;;;;;;9.43;2.37;;;;;;;;;;4983652;28;20034;-62
2022/05/22 14:28:38;;;;;;;2.75;1.85;;;;;;;;;;4983693;28;20030;-62
2022/05/22 14:31:12;;;;;;;3.22;1.63;;;;;;;;;;4984301;28;20026;-62